Terminal Aerodrome Forecast
Issued by NWS

Home | Current Version | Previous Version | Graphics & Text | Print | Product List | Glossary On
Versions: 1 2 3 4 5 6 7 8 9 10 11 12 13 14 15
000
FTUS43 KABR 011738
TAFATY
TAF
KATY 011738Z 0118/0218 16018G23KT P6SM FEW060
     FM020600 16014G20KT P6SM BKN050
     FM021400 18014G21KT P6SM OVC015=

USA.gov is the U.S. government's official web portal to all federal, state and local government web resources and services.